Ligonier, IN

21:25 EDT le 20 avril 2015 (GMT -0400)
Sugarhill Farms | | Change Station
CLOSE
Current Station
Stations météorologiques personnelles
Location: Ligonier, IN
Altitude: 879 ft
Stations météo à proximité

Alt. 879 ft 41.42 °N, 85.61 °W | Updated 7 minutes ago

Couvert
Couvert
46.2 ° F
Paraît 42 ° F
N
9.0
Vent Variable Vent de Ouest
Gusts 22.0 mph

Aujourd'hui
Haut(e) -- | Bas -- ° F
--% Risque de précip.
Hier
Haut(e) -- | Bas -- ° F
Precip. -- pouce
6:55 AM 8:27 PM
Lune montante, 7% visible
Pression 29.60 pouce
Visibilité 10.0 Miles terrestres
Nuages Couvert 5500 ft
Refroidissement éolien 42 ° F
Point de rosée 36 ° F
Humidité 68%
Précipitations 0.15 pouce
Profondeur de la couche neigeuse Non disponible.
UV 0 sur 12
Pollen 5.80 sur 12
Qualité de l'air Non disponible.
Flu Activity Local Activity
METAR KGSH 210053Z AUTO 25016G24KT 10SM OVC055 08/01 A2960 RMK AO2 SLP023 T00830011

More Conditions Fewer Conditions

Pression 29.60 pouce
Visibilité 10.0 Miles terrestres
Nuages Couvert 5500 ft
Refroidissement éolien 42 ° F
Point de rosée 36 ° F
Humidité 68%
Précipitations 0.15 pouce
Profondeur de la couche neigeuse Non disponible.
UV 0 sur 12
Pollen 5.80 sur 12
Qualité de l'air Non disponible.
Flu Activity Local Activity
METAR KGSH 210053Z AUTO 25016G24KT 10SM OVC055 08/01 A2960 RMK AO2 SLP023 T00830011

More Conditions Fewer Conditions

10-Day Weather Forecast

Almanac

Astronomie

Apr. 20, 2015 Lever Coucher
Temps réel
Crépuscule civil
Crépuscule nautique
Crépuscule astronomique
Lune
Durée de lumière visible
Longueur du jour
Tomorrow will be .
, % of the Moon is Illuminated

Extrêmes aujourd'hui

State Highs State Lows

Community

WunderPhotos

Upload Photos

1,815,274 Photos téléchargées !

WunderBlogs® & News

Nearby

Qualité de l'air

  Qualité de l'air Indice de la qualité de l'air Polluant
Not available.

Épaisseur de neige

Station Depth Altitude

Activité sismique

Ville Distance Mag. Time & Date
Minimum magnitude displayed is 2.5.

Températures des eaux côtières

Lieu Température

Stations

Stations météo à proximité

Emplacement de la station Température Refroidissement éolien Point de rosée Humidité Vent Precip. Alt. Mise à jour Type